createdAt,value
2022-08-19T00:02:20.777Z,96090.66
2022-08-19T00:04:53.626Z,96085.03
2022-08-19T00:07:23.715Z,96085.88
2022-08-19T00:09:51.442Z,96081.56
2022-08-19T00:12:22.160Z,96078.31
2022-08-19T00:14:49.896Z,96071.72
2022-08-19T00:17:20.143Z,96075.88
2022-08-19T00:19:47.797Z,95831.84
2022-08-19T00:22:17.133Z,96090.00
2022-08-19T00:24:49.637Z,96088.50
2022-08-19T00:27:26.348Z,96087.34
2022-08-19T00:29:56.381Z,96084.75
2022-08-19T00:32:24.080Z,96082.44
2022-08-19T00:34:55.721Z,96078.31
2022-08-19T00:37:27.741Z,96067.59
2022-08-19T00:39:56.925Z,96064.31
2022-08-19T00:42:24.813Z,96062.50
2022-08-19T00:44:53.313Z,96053.59
2022-08-19T00:47:22.731Z,96046.00
2022-08-19T00:49:54.177Z,96040.72
2022-08-19T00:52:23.030Z,96051.59
2022-08-19T00:54:53.452Z,96047.50
2022-08-19T00:57:22.255Z,96044.72
2022-08-19T01:00:00.970Z,96055.06
2022-08-19T01:02:32.272Z,96069.84
2022-08-19T01:05:00.093Z,96062.22
2022-08-19T01:07:28.031Z,96067.81
2022-08-19T01:10:03.417Z,96066.72
2022-08-19T01:12:31.233Z,96066.25
2022-08-19T01:14:58.959Z,96064.09
2022-08-19T01:17:26.836Z,96069.72
2022-08-19T01:19:55.901Z,96064.44
2022-08-19T01:22:33.302Z,96071.41
2022-08-19T01:25:01.699Z,96061.31
2022-08-19T01:27:38.038Z,96055.16
2022-08-19T01:30:11.812Z,96050.31
2022-08-19T01:32:42.445Z,96050.56
2022-08-19T01:35:10.715Z,96063.75
2022-08-19T01:37:47.398Z,96054.56
2022-08-19T01:40:15.167Z,96050.44
2022-08-19T01:42:43.262Z,96048.78
2022-08-19T01:45:11.547Z,96052.03
2022-08-19T01:47:39.705Z,96058.38
2022-08-19T01:50:08.190Z,96055.81
2022-08-19T01:52:36.740Z,96057.25
2022-08-19T01:55:07.778Z,96049.78
2022-08-19T01:57:35.417Z,96051.66
2022-08-19T02:00:06.024Z,96056.94
2022-08-19T02:02:36.636Z,96050.25
2022-08-19T02:05:04.569Z,96052.66
2022-08-19T02:07:33.760Z,96047.72
2022-08-19T02:10:03.081Z,96060.41
2022-08-19T02:12:38.707Z,96068.19
2022-08-19T02:15:07.931Z,96066.91
2022-08-19T02:17:35.974Z,96056.97
2022-08-19T02:20:03.645Z,96051.19
2022-08-19T02:22:31.522Z,96048.84
2022-08-19T02:24:59.716Z,96056.22
2022-08-19T02:27:27.576Z,96056.47
2022-08-19T02:29:57.848Z,96055.91
2022-08-19T02:32:25.859Z,96056.84
2022-08-19T02:34:53.836Z,96050.00
2022-08-19T02:37:38.607Z,96052.53
2022-08-19T02:40:12.577Z,96036.22
2022-08-19T02:42:44.533Z,96033.94
2022-08-19T02:45:13.891Z,96035.41
2022-08-19T02:47:45.602Z,96041.91
2022-08-19T02:50:13.806Z,96036.97
2022-08-19T02:52:43.641Z,96032.22
2022-08-19T02:55:11.507Z,96042.44
2022-08-19T02:57:39.146Z,96038.25
2022-08-19T03:00:07.549Z,96039.78
2022-08-19T03:02:36.620Z,96046.00
2022-08-19T03:05:04.843Z,96046.00
2022-08-19T03:07:32.624Z,96046.50
2022-08-19T03:10:00.311Z,96058.44
2022-08-19T03:12:28.386Z,96060.44
2022-08-19T03:14:56.130Z,96050.72
2022-08-19T03:17:24.293Z,96044.16
2022-08-19T03:19:53.393Z,96045.94
2022-08-19T03:22:22.160Z,96046.19
2022-08-19T03:24:49.739Z,96048.91
2022-08-19T03:27:18.630Z,96053.50
2022-08-19T03:29:46.654Z,96053.19
2022-08-19T03:32:32.198Z,96058.59
2022-08-19T03:35:03.458Z,96057.38
2022-08-19T03:37:33.650Z,96051.03
2022-08-19T03:40:04.633Z,96054.16
2022-08-19T03:42:48.473Z,96046.56
2022-08-19T03:45:20.080Z,96049.22
2022-08-19T03:47:48.026Z,96048.94
2022-08-19T03:50:17.433Z,96056.91
2022-08-19T03:52:50.368Z,96057.38
2022-08-19T03:55:18.084Z,96045.13
2022-08-19T03:57:46.093Z,96052.06
2022-08-19T04:00:14.936Z,96057.66
2022-08-19T04:02:56.433Z,96056.63
2022-08-19T04:05:30.588Z,96073.41
2022-08-19T04:07:59.903Z,96068.56
2022-08-19T04:10:28.641Z,96076.97
2022-08-19T04:12:58.344Z,96081.47
2022-08-19T04:15:26.015Z,96071.63
2022-08-19T04:17:55.260Z,96069.53
2022-08-19T04:20:22.973Z,96071.47
2022-08-19T04:22:52.183Z,96076.91
2022-08-19T04:25:20.424Z,96073.41
2022-08-19T04:27:49.542Z,96072.75
2022-08-19T04:30:18.718Z,96063.78
2022-08-19T04:32:46.473Z,96065.44
2022-08-19T04:35:16.948Z,96068.53
2022-08-19T04:37:45.505Z,96073.22
2022-08-19T04:40:32.304Z,96068.84
2022-08-19T04:43:00.446Z,96058.88
2022-08-19T04:45:39.527Z,96068.59
2022-08-19T04:48:27.357Z,96060.41
2022-08-19T04:50:58.613Z,96068.13
2022-08-19T04:53:29.759Z,96067.13
2022-08-19T04:56:08.334Z,96068.22
2022-08-19T04:58:36.082Z,96066.25
2022-08-19T05:01:03.881Z,96071.41
2022-08-19T05:03:34.496Z,96080.22
2022-08-19T05:06:08.221Z,96080.06
2022-08-19T05:08:36.693Z,96076.59
2022-08-19T05:11:14.211Z,96085.44
2022-08-19T05:13:47.082Z,96092.00
2022-08-19T05:16:14.989Z,96100.53
2022-08-19T05:19:00.014Z,96100.66
2022-08-19T05:21:45.416Z,96108.28
2022-08-19T05:24:13.764Z,96106.06
2022-08-19T05:26:42.255Z,96118.63
2022-08-19T05:29:14.714Z,96126.91
2022-08-19T05:31:42.597Z,96121.56
2022-08-19T05:34:20.181Z,96126.94
2022-08-19T05:36:48.677Z,96139.50
2022-08-19T05:39:20.745Z,96147.53
2022-08-19T05:41:51.574Z,96161.19
2022-08-19T05:44:22.851Z,96163.13
2022-08-19T05:46:53.737Z,96166.66
2022-08-19T05:49:22.953Z,96160.81
2022-08-19T05:51:51.978Z,96156.09
2022-08-19T05:54:20.063Z,95952.09
2022-08-19T05:56:48.718Z,96156.81
2022-08-19T05:59:17.770Z,96160.78
2022-08-19T06:01:51.465Z,96162.31
2022-08-19T06:04:21.384Z,96164.94
2022-08-19T06:06:52.680Z,96156.25
2022-08-19T06:09:24.467Z,96156.47
2022-08-19T06:11:55.989Z,96144.69
2022-08-19T06:14:27.757Z,96155.31
2022-08-19T06:16:57.309Z,96155.31
2022-08-19T06:19:26.455Z,96155.09
2022-08-19T06:21:54.953Z,96151.63
2022-08-19T06:24:37.781Z,96152.91
2022-08-19T06:27:06.597Z,96144.56
2022-08-19T06:29:36.133Z,96147.28
2022-08-19T06:32:08.988Z,95585.59
2022-08-19T06:34:37.108Z,96147.69
2022-08-19T06:37:07.178Z,96147.66
2022-08-19T06:39:36.011Z,96148.00
2022-08-19T06:42:10.297Z,96143.38
2022-08-19T06:44:42.796Z,96149.13
2022-08-19T06:47:23.127Z,96149.06
2022-08-19T06:49:55.079Z,96150.97
2022-08-19T06:52:28.768Z,96152.53
2022-08-19T06:54:59.675Z,96151.06
2022-08-19T06:57:28.392Z,96163.44
2022-08-19T06:59:57.590Z,96158.47
2022-08-19T07:02:30.191Z,96159.97
2022-08-19T07:04:59.382Z,96145.81
2022-08-19T07:07:28.051Z,96148.19
2022-08-19T07:10:01.831Z,96185.44
2022-08-19T07:12:38.051Z,96166.66
2022-08-19T07:15:06.470Z,96167.44
2022-08-19T07:17:36.642Z,96167.94
2022-08-19T07:20:09.588Z,96173.94
2022-08-19T07:22:38.917Z,96175.03
2022-08-19T07:25:08.150Z,96180.72
2022-08-19T07:27:36.171Z,96172.88
2022-08-19T07:30:03.982Z,96181.75
2022-08-19T07:32:32.520Z,95968.50
2022-08-19T07:35:04.286Z,96167.69
2022-08-19T07:37:33.415Z,96176.06
2022-08-19T07:40:03.620Z,96178.19
2022-08-19T07:42:34.187Z,96178.56
2022-08-19T07:45:02.186Z,96188.75
2022-08-19T07:47:48.036Z,96182.63
2022-08-19T07:50:20.906Z,96180.66
2022-08-19T07:52:52.818Z,96169.34
2022-08-19T07:55:40.178Z,96178.69
2022-08-19T07:58:13.550Z,96174.31
2022-08-19T08:00:44.219Z,96180.16
2022-08-19T08:03:12.526Z,96181.59
2022-08-19T08:05:59.250Z,96217.34
2022-08-19T08:08:47.327Z,96187.47
2022-08-19T08:11:16.795Z,96184.19
2022-08-19T08:13:45.481Z,96183.56
2022-08-19T08:16:14.363Z,96188.94
2022-08-19T08:18:50.214Z,96187.84
2022-08-19T08:21:20.464Z,96186.44
2022-08-19T08:23:48.571Z,96192.53
2022-08-19T08:26:17.208Z,96190.53
2022-08-19T08:28:49.632Z,96180.41
2022-08-19T08:31:19.617Z,96191.28
2022-08-19T08:33:48.532Z,96200.53
2022-08-19T08:36:19.229Z,96197.78
2022-08-19T08:38:49.199Z,96197.28
2022-08-19T08:41:21.709Z,96206.69
2022-08-19T08:43:52.820Z,96202.84
2022-08-19T08:46:32.160Z,96206.19
2022-08-19T08:49:02.363Z,96201.94
2022-08-19T08:51:34.947Z,96201.38
2022-08-19T08:54:04.957Z,96205.00
2022-08-19T08:56:33.182Z,96210.28
2022-08-19T08:59:02.004Z,96216.41
2022-08-19T09:01:30.921Z,96205.72
2022-08-19T09:04:02.590Z,96208.94
2022-08-19T09:06:31.707Z,96210.16
2022-08-19T09:09:04.093Z,96199.31
2022-08-19T09:11:47.154Z,95263.69
2022-08-19T09:14:47.313Z,96197.13
2022-08-19T09:17:08.646Z,96191.78
2022-08-19T09:19:37.011Z,96203.72
2022-08-19T09:22:06.339Z,96205.00
2022-08-19T09:24:34.479Z,96205.19
2022-08-19T09:27:18.306Z,96205.22
2022-08-19T09:29:47.089Z,96207.22
2022-08-19T09:32:26.672Z,96205.25
2022-08-19T09:34:55.700Z,96206.94
2022-08-19T09:37:26.639Z,96212.69
2022-08-19T09:39:54.695Z,96213.28
2022-08-19T09:42:30.494Z,96215.97
2022-08-19T09:45:04.928Z,96215.97
2022-08-19T09:47:33.553Z,96214.84
2022-08-19T09:50:01.370Z,96218.00
2022-08-19T09:52:32.761Z,96223.63
2022-08-19T09:55:01.361Z,96219.56
2022-08-19T09:57:36.953Z,96218.00
2022-08-19T10:00:05.855Z,96214.97
2022-08-19T10:02:34.143Z,96217.47
2022-08-19T10:05:26.590Z,96217.78
2022-08-19T10:07:56.903Z,96218.88
2022-08-19T10:10:25.438Z,96217.53
2022-08-19T10:12:58.998Z,96225.59
2022-08-19T10:15:29.226Z,96214.25
2022-08-19T10:17:58.792Z,96224.16
2022-08-19T10:20:26.590Z,96212.84
2022-08-19T10:22:54.384Z,96221.81
2022-08-19T10:25:22.238Z,96216.53
2022-08-19T10:27:51.434Z,96216.97
2022-08-19T10:30:21.668Z,96215.50
2022-08-19T10:32:53.050Z,96209.53
2022-08-19T10:35:25.949Z,96225.09
2022-08-19T10:37:57.543Z,96217.63
2022-08-19T10:40:28.169Z,96218.56
2022-08-19T10:42:59.103Z,96208.16
2022-08-19T10:45:28.436Z,96197.34
2022-08-19T10:47:57.821Z,96195.25
2022-08-19T10:50:43.801Z,96189.03
2022-08-19T10:53:11.666Z,96186.88
2022-08-19T10:55:57.133Z,96176.94
2022-08-19T10:58:26.392Z,96162.44
2022-08-19T11:00:56.538Z,96160.63
2022-08-19T11:03:25.222Z,96163.25
2022-08-19T11:05:59.486Z,96164.13
2022-08-19T11:08:27.874Z,96168.81
2022-08-19T11:10:57.867Z,96173.63
2022-08-19T11:13:26.399Z,96171.44
2022-08-19T11:16:07.439Z,96157.75
2022-08-19T11:18:37.125Z,96166.75
2022-08-19T11:21:12.460Z,96167.28
2022-08-19T11:23:40.506Z,96163.81
2022-08-19T11:26:08.805Z,96163.78
2022-08-19T11:28:37.479Z,96166.72
2022-08-19T11:31:09.741Z,96166.03
2022-08-19T11:33:38.848Z,96169.34
2022-08-19T11:36:06.824Z,96183.84
2022-08-19T11:38:34.885Z,96182.44
2022-08-19T11:41:03.824Z,96182.88
2022-08-19T11:43:37.166Z,96188.91
2022-08-19T11:46:08.932Z,96177.00
2022-08-19T11:48:39.468Z,96178.91
2022-08-19T11:51:08.594Z,96172.84
2022-08-19T11:53:39.045Z,96179.56
2022-08-19T11:56:11.224Z,96170.94
2022-08-19T11:58:39.096Z,96174.66
2022-08-19T12:01:12.119Z,96169.38
2022-08-19T12:03:40.131Z,96166.66
2022-08-19T12:06:08.680Z,96138.91
2022-08-19T12:08:36.597Z,96168.69
2022-08-19T12:11:04.317Z,96173.59
2022-08-19T12:13:33.873Z,96175.41
2022-08-19T12:16:01.515Z,96163.53
2022-08-19T12:18:33.479Z,96164.00
2022-08-19T12:21:02.442Z,96153.88
2022-08-19T12:23:32.899Z,96144.81
2022-08-19T12:26:00.730Z,96134.78
2022-08-19T12:28:28.653Z,96152.09
2022-08-19T12:30:59.407Z,96152.53
2022-08-19T12:33:30.538Z,96145.81
2022-08-19T12:36:02.187Z,96152.28
2022-08-19T12:38:30.381Z,96152.47
2022-08-19T12:41:00.450Z,96148.56
2022-08-19T12:43:28.347Z,96148.72
2022-08-19T12:45:56.386Z,96152.56
2022-08-19T12:48:31.401Z,96148.34
2022-08-19T12:51:03.654Z,96146.66
2022-08-19T12:53:31.459Z,96155.84
2022-08-19T12:55:59.259Z,96153.59
2022-08-19T12:58:27.545Z,96154.81
2022-08-19T13:01:00.157Z,96151.66
2022-08-19T13:03:30.300Z,96164.66
2022-08-19T13:05:58.714Z,96155.56
2022-08-19T13:08:37.044Z,96154.44
2022-08-19T13:11:12.733Z,96160.84
2022-08-19T13:13:48.027Z,96151.78
2022-08-19T13:16:18.671Z,96153.00
2022-08-19T13:18:48.477Z,96149.28
2022-08-19T13:21:16.345Z,96155.13
2022-08-19T13:23:45.382Z,96157.97
2022-08-19T13:26:13.846Z,96148.44
2022-08-19T13:28:58.871Z,96149.31
2022-08-19T13:31:53.771Z,96149.63
2022-08-19T13:34:28.058Z,96156.19
2022-08-19T13:37:00.885Z,96163.47
2022-08-19T13:39:30.944Z,96159.00
2022-08-19T13:41:58.637Z,96165.69
2022-08-19T13:44:27.505Z,96162.59
2022-08-19T13:46:57.687Z,96169.25
2022-08-19T13:49:35.321Z,96160.84
2022-08-19T13:52:06.473Z,96163.53
2022-08-19T13:54:35.647Z,96171.09
2022-08-19T13:57:09.783Z,96176.50
2022-08-19T13:59:38.198Z,96172.50
2022-08-19T14:02:06.537Z,96179.34
2022-08-19T14:04:35.576Z,96170.44
2022-08-19T14:07:03.291Z,96179.31
2022-08-19T14:09:31.352Z,96176.47
2022-08-19T14:12:00.343Z,96173.91
2022-08-19T14:14:28.683Z,96173.06
2022-08-19T14:16:56.407Z,96171.84
2022-08-19T14:19:30.694Z,96171.50
2022-08-19T14:21:59.789Z,96171.19
2022-08-19T14:24:27.616Z,96172.53
2022-08-19T14:26:58.292Z,96170.25
2022-08-19T14:29:30.319Z,95988.88
2022-08-19T14:32:00.074Z,96174.09
2022-08-19T14:34:31.722Z,96170.06
2022-08-19T14:36:59.789Z,96175.50
2022-08-19T14:39:30.556Z,96167.91
2022-08-19T14:42:00.622Z,96171.03
2022-08-19T14:44:32.707Z,96161.00
2022-08-19T14:47:00.571Z,96163.75
2022-08-19T14:49:35.301Z,96168.53
2022-08-19T14:52:10.069Z,96163.41
2022-08-19T14:54:37.821Z,96162.91
2022-08-19T14:57:09.251Z,96156.94
2022-08-19T14:59:39.341Z,96153.97
2022-08-19T15:02:33.660Z,96159.91
2022-08-19T15:04:59.353Z,96155.88
2022-08-19T15:07:29.613Z,96159.31
2022-08-19T15:09:57.653Z,96159.78
2022-08-19T15:12:25.629Z,96154.19
2022-08-19T15:14:56.861Z,96153.50
2022-08-19T15:17:43.671Z,96148.59
2022-08-19T15:20:16.535Z,96147.53
2022-08-19T15:22:44.270Z,96146.84
2022-08-19T15:25:13.529Z,96159.47
2022-08-19T15:27:42.595Z,96149.00
2022-08-19T15:30:13.005Z,96158.38
2022-08-19T15:32:41.136Z,96159.38
2022-08-19T15:35:09.778Z,96158.03
2022-08-19T15:37:37.926Z,96157.28
2022-08-19T15:40:06.458Z,96163.47
2022-08-19T15:42:36.886Z,96165.41
2022-08-19T15:45:04.803Z,96158.28
2022-08-19T15:47:34.634Z,96159.78
2022-08-19T15:50:05.493Z,96152.25
2022-08-19T15:52:33.234Z,96162.22
2022-08-19T15:55:01.840Z,96160.75
2022-08-19T15:57:52.151Z,96158.56
2022-08-19T16:00:33.622Z,96170.56
2022-08-19T16:03:19.823Z,96167.28
2022-08-19T16:06:06.300Z,96166.25
2022-08-19T16:08:48.939Z,96168.13
2022-08-19T16:11:21.483Z,96168.75
2022-08-19T16:13:52.095Z,96172.94
2022-08-19T16:16:22.695Z,96174.09
2022-08-19T16:18:57.265Z,96169.44
2022-08-19T16:21:33.121Z,96172.13
2022-08-19T16:24:01.412Z,96175.22
2022-08-19T16:26:31.166Z,96171.69
2022-08-19T16:28:59.875Z,96185.91
2022-08-19T16:31:27.780Z,96172.72
2022-08-19T16:33:57.652Z,96173.44
2022-08-19T16:36:25.396Z,96182.34
2022-08-19T16:38:53.862Z,96183.19
2022-08-19T16:41:24.668Z,96180.31
2022-08-19T16:43:54.967Z,96176.31
2022-08-19T16:46:26.952Z,96184.91
2022-08-19T16:48:59.823Z,96191.63
2022-08-19T16:51:27.814Z,96192.38
2022-08-19T16:53:56.364Z,96196.69
2022-08-19T16:56:25.599Z,96193.94
2022-08-19T16:58:53.901Z,96199.16
2022-08-19T17:01:21.897Z,96194.38
2022-08-19T17:03:50.577Z,96199.03
2022-08-19T17:06:21.156Z,96199.91
2022-08-19T17:08:50.024Z,96200.91
2022-08-19T17:11:19.077Z,96206.34
2022-08-19T17:13:50.389Z,96201.38
2022-08-19T17:16:18.393Z,96207.28
2022-08-19T17:18:47.791Z,96206.84
2022-08-19T17:21:15.541Z,96204.50
2022-08-19T17:23:44.815Z,96207.31
2022-08-19T17:26:15.858Z,96204.97
2022-08-19T17:28:46.002Z,96213.94
2022-08-19T17:31:14.042Z,96211.50
2022-08-19T17:33:48.178Z,96205.94
2022-08-19T17:36:26.964Z,96204.50
2022-08-19T17:39:01.974Z,96211.53
2022-08-19T17:41:34.000Z,96216.78
2022-08-19T17:44:02.000Z,96219.06
2022-08-19T17:46:34.464Z,96219.69
2022-08-19T17:49:06.019Z,96219.00
2022-08-19T17:51:41.996Z,96216.06
2022-08-19T17:54:15.619Z,96218.84
2022-08-19T17:56:43.555Z,96217.22
2022-08-19T17:59:13.847Z,96222.59
2022-08-19T18:01:52.107Z,96216.13
2022-08-19T18:04:22.232Z,96222.31
2022-08-19T18:06:53.078Z,96223.38
2022-08-19T18:09:26.410Z,96230.00
2022-08-19T18:11:54.978Z,96230.78
2022-08-19T18:14:33.989Z,96232.84
2022-08-19T18:17:05.109Z,96238.28
2022-08-19T18:19:41.174Z,96233.06
2022-08-19T18:22:15.664Z,96242.66
2022-08-19T18:24:46.151Z,96238.53
2022-08-19T18:27:19.074Z,96241.59
2022-08-19T18:29:46.744Z,96252.53
2022-08-19T18:32:15.064Z,96250.16
2022-08-19T18:34:43.209Z,96259.38
2022-08-19T18:37:11.006Z,96264.63
2022-08-19T18:39:56.122Z,96258.81
2022-08-19T18:42:43.108Z,96265.53
2022-08-19T18:45:28.674Z,96263.53
2022-08-19T18:48:23.975Z,96269.66
2022-08-19T18:50:54.937Z,96278.53
2022-08-19T18:53:27.217Z,96274.97
2022-08-19T18:55:55.385Z,96275.31
2022-08-19T18:58:26.596Z,96297.03
2022-08-19T19:00:56.838Z,96281.50
2022-08-19T19:03:24.923Z,96275.34
2022-08-19T19:05:53.310Z,96283.03
2022-08-19T19:08:27.097Z,96287.88
2022-08-19T19:10:55.284Z,96292.03
2022-08-19T19:13:22.980Z,96292.31
2022-08-19T19:15:54.572Z,96289.56
2022-08-19T19:18:22.258Z,96292.22
2022-08-19T19:20:52.663Z,96299.50
2022-08-19T19:23:20.598Z,96300.75
2022-08-19T19:25:51.087Z,96298.38
2022-08-19T19:28:20.760Z,96298.38
2022-08-19T19:30:48.570Z,96296.69
2022-08-19T19:33:18.025Z,96311.22
2022-08-19T19:35:48.687Z,96305.34
2022-08-19T19:38:16.685Z,96308.34
2022-08-19T19:40:44.653Z,96312.59
2022-08-19T19:43:15.047Z,96321.34
2022-08-19T19:45:45.285Z,96320.50
2022-08-19T19:48:31.100Z,96144.59
2022-08-19T19:51:00.437Z,96312.69
2022-08-19T19:53:30.526Z,96317.66
2022-08-19T19:56:01.466Z,96312.69
2022-08-19T19:58:31.147Z,96314.78
2022-08-19T20:00:59.534Z,96325.81
2022-08-19T20:03:40.289Z,96325.81
2022-08-19T20:06:10.174Z,96328.91
2022-08-19T20:08:55.296Z,96328.72
2022-08-19T20:11:31.260Z,96329.53
2022-08-19T20:14:02.980Z,96322.28
2022-08-19T20:16:40.634Z,96326.06
2022-08-19T20:19:09.403Z,96328.75
2022-08-19T20:21:44.957Z,96330.13
2022-08-19T20:24:17.214Z,96328.91
2022-08-19T20:26:47.222Z,96329.00
2022-08-19T20:29:39.623Z,96321.81
2022-08-19T20:32:07.798Z,96335.53
2022-08-19T20:34:37.277Z,96335.06
2022-08-19T20:37:12.978Z,96336.41
2022-08-19T20:39:40.880Z,96338.22
2022-08-19T20:42:08.860Z,96334.16
2022-08-19T20:44:37.773Z,96338.97
2022-08-19T20:47:06.088Z,96343.41
2022-08-19T20:49:34.687Z,96337.34
2022-08-19T20:52:03.829Z,96349.03
2022-08-19T20:54:33.414Z,96341.59
2022-08-19T20:57:03.589Z,96349.22
2022-08-19T20:59:31.691Z,96341.34
2022-08-19T21:02:00.591Z,96339.25
2022-08-19T21:04:30.915Z,96348.75
2022-08-19T21:06:58.649Z,96347.72
2022-08-19T21:09:26.366Z,96348.78
2022-08-19T21:11:58.682Z,96361.91
2022-08-19T21:14:26.317Z,96357.28
2022-08-19T21:16:54.054Z,96363.38
2022-08-19T21:19:24.170Z,96366.94
2022-08-19T21:21:52.031Z,96359.78
2022-08-19T21:24:19.712Z,96369.22
2022-08-19T21:26:51.215Z,96366.31
2022-08-19T21:29:22.196Z,96367.81
2022-08-19T21:31:52.248Z,96370.28
2022-08-19T21:34:19.923Z,96369.56
2022-08-19T21:36:47.596Z,96371.72
2022-08-19T21:39:15.656Z,96376.06
2022-08-19T21:41:45.391Z,96375.13
2022-08-19T21:44:13.108Z,96383.47
2022-08-19T21:46:42.258Z,96374.81
2022-08-19T21:49:10.477Z,96374.25
2022-08-19T21:51:41.090Z,96369.94
2022-08-19T21:54:08.769Z,96371.19
2022-08-19T21:56:42.504Z,96375.38
2022-08-19T21:59:10.094Z,96381.31
2022-08-19T22:01:38.115Z,96381.69
2022-08-19T22:04:07.767Z,96387.56
2022-08-19T22:06:35.532Z,96392.69
2022-08-19T22:09:09.378Z,96387.31
2022-08-19T22:11:43.054Z,96382.50
2022-08-19T22:14:11.040Z,96391.63
2022-08-19T22:16:38.817Z,96397.50
2022-08-19T22:19:09.717Z,96390.03
2022-08-19T22:21:40.167Z,96393.69
2022-08-19T22:24:08.932Z,96396.41
2022-08-19T22:26:36.632Z,96389.78
2022-08-19T22:29:05.882Z,96394.94
2022-08-19T22:31:36.503Z,96391.63
2022-08-19T22:34:04.194Z,96395.72
2022-08-19T22:36:33.965Z,96396.34
2022-08-19T22:39:04.187Z,96401.03
2022-08-19T22:41:33.841Z,96401.25
2022-08-19T22:44:02.865Z,96413.09
2022-08-19T22:46:34.287Z,96413.09
2022-08-19T22:49:04.531Z,96406.34
2022-08-19T22:51:51.398Z,96409.56
2022-08-19T22:54:19.770Z,96411.25
2022-08-19T22:56:53.480Z,96416.41
2022-08-19T22:59:22.145Z,96405.72
2022-08-19T23:01:49.932Z,96410.75
2022-08-19T23:04:17.602Z,96407.25
2022-08-19T23:06:46.998Z,96403.69
2022-08-19T23:09:17.521Z,96409.44
2022-08-19T23:11:45.256Z,96405.56
2022-08-19T23:14:13.353Z,96403.00
2022-08-19T23:16:41.962Z,96408.19
2022-08-19T23:19:10.557Z,96397.59
2022-08-19T23:21:38.617Z,96403.34
2022-08-19T23:24:10.394Z,96398.44
2022-08-19T23:27:02.531Z,96403.50
2022-08-19T23:29:48.614Z,96403.50
2022-08-19T23:32:16.947Z,96403.13
2022-08-19T23:34:45.944Z,96405.88
2022-08-19T23:37:14.215Z,96404.56
2022-08-19T23:39:45.752Z,96403.50
2022-08-19T23:42:13.614Z,96409.97
2022-08-19T23:44:51.916Z,96412.25
2022-08-19T23:47:20.744Z,96414.75
2022-08-19T23:49:48.957Z,96419.25
2022-08-19T23:52:18.645Z,96413.63
2022-08-19T23:54:53.008Z,96430.31
2022-08-19T23:57:23.874Z,96412.41
2022-08-19T23:59:51.461Z,96408.25
